Time,TemperatureF,DewpointF,PressureIn,WindDirection,WindDirectionDegrees,WindSpeedMPH,WindSpeedGustMPH,Humidity,HourlyPrecipIn,Conditions,Clouds,dailyrainin,SoftwareType,DateUTC
2013-06-21 00:14:00,52.2,46.5,30.22,NE,45,0.0,-999.0,81,-99.99,,,0.00,Acu-Link.com,2013-06-21 04:14:00,
2013-06-21 00:30:00,51.8,46.5,30.22,WNW,292,0.0,-999.0,82,-99.99,,,0.00,Acu-Link.com,2013-06-21 04:30:00,
2013-06-21 00:45:00,51.4,46.4,30.23,East,90,0.0,-999.0,83,-99.99,,,0.00,Acu-Link.com,2013-06-21 04:45:00,
2013-06-21 01:00:00,51.1,46.4,30.22,NNE,22,0.0,-999.0,84,-99.99,,,0.00,Acu-Link.com,2013-06-21 05:00:00,
2013-06-21 01:15:00,50.9,46.6,30.22,NE,45,0.0,-999.0,85,-99.99,,,0.00,Acu-Link.com,2013-06-21 05:15:00,
2013-06-21 01:31:00,50.5,46.5,30.21,NW,315,0.0,-999.0,86,-99.99,,,0.00,Acu-Link.com,2013-06-21 05:31:00,
2013-06-21 01:46:00,50.2,46.5,30.22,ESE,112,0.0,-999.0,87,-99.99,,,0.00,Acu-Link.com,2013-06-21 05:46:00,
2013-06-21 02:01:00,49.8,46.4,30.22,South,180,0.0,-999.0,88,-99.99,,,0.00,Acu-Link.com,2013-06-21 06:01:00,
2013-06-21 02:17:00,49.8,46.7,30.21,South,180,0.0,-999.0,89,-99.99,,,0.00,Acu-Link.com,2013-06-21 06:17:00,
2013-06-21 02:32:00,49.6,47.1,30.21,South,180,0.0,-999.0,91,-99.99,,,0.00,Acu-Link.com,2013-06-21 06:32:00,
2013-06-21 02:47:00,49.5,47.0,30.21,SSE,157,0.0,-999.0,91,-99.99,,,0.00,Acu-Link.com,2013-06-21 06:47:00,
2013-06-21 03:03:00,49.3,46.5,30.21,NE,45,0.0,-999.0,90,-99.99,,,0.00,Acu-Link.com,2013-06-21 07:03:00,
2013-06-21 03:18:00,48.9,46.4,30.21,NE,45,0.0,-999.0,91,-99.99,,,0.00,Acu-Link.com,2013-06-21 07:18:00,
2013-06-21 03:33:00,48.9,46.4,30.21,NE,45,0.0,-999.0,91,-99.99,,,0.00,Acu-Link.com,2013-06-21 07:33:00,
2013-06-21 03:49:00,48.9,47.0,30.21,NNE,22,0.0,-999.0,93,-99.99,,,0.00,Acu-Link.com,2013-06-21 07:49:00,
2013-06-21 04:04:00,48.9,47.0,30.21,NE,45,0.0,-999.0,93,-99.99,,,0.00,Acu-Link.com,2013-06-21 08:04:00,
2013-06-21 04:20:00,48.7,46.8,30.21,NE,45,0.0,-999.0,93,-99.99,,,0.00,Acu-Link.com,2013-06-21 08:20:00,
2013-06-21 04:35:00,48.7,46.8,30.21,NE,45,0.0,-999.0,93,-99.99,,,0.00,Acu-Link.com,2013-06-21 08:35:00,
2013-06-21 04:50:00,48.7,46.8,30.21,NE,45,0.0,-999.0,93,-99.99,,,0.00,Acu-Link.com,2013-06-21 08:50:00,
2013-06-21 05:05:00,48.7,46.8,30.22,NE,45,0.0,-999.0,93,-99.99,,,0.00,Acu-Link.com,2013-06-21 09:05:00,
2013-06-21 05:20:00,48.4,46.5,30.22,East,90,0.0,-999.0,93,-99.99,,,0.00,Acu-Link.com,2013-06-21 09:20:00,
2013-06-21 05:35:00,48.4,46.5,30.23,South,180,0.0,-999.0,93,-99.99,,,0.00,Acu-Link.com,2013-06-21 09:35:00,
2013-06-21 05:50:00,48.4,46.8,30.23,ENE,67,0.0,-999.0,94,-99.99,,,0.00,Acu-Link.com,2013-06-21 09:50:00,
2013-06-21 06:05:00,48.2,46.6,30.23,East,90,0.0,-999.0,94,-99.99,,,0.00,Acu-Link.com,2013-06-21 10:05:00,
2013-06-21 06:21:00,48.7,47.1,30.23,ENE,67,0.0,-999.0,94,-99.99,,,0.00,Acu-Link.com,2013-06-21 10:21:00,
2013-06-21 06:36:00,49.1,47.7,30.24,ENE,67,0.0,-999.0,95,-99.99,,,0.00,Acu-Link.com,2013-06-21 10:36:00,
2013-06-21 06:51:00,50.2,48.8,30.24,ESE,112,0.0,-999.0,95,-99.99,,,0.00,Acu-Link.com,2013-06-21 10:51:00,
2013-06-21 07:07:00,51.4,50.3,30.23,NE,45,0.0,-999.0,96,-99.99,,,0.00,Acu-Link.com,2013-06-21 11:07:00,
2013-06-21 07:22:00,52.2,50.8,30.24,ESE,112,0.0,-999.0,95,-99.99,,,0.00,Acu-Link.com,2013-06-21 11:22:00,
2013-06-21 07:37:00,53.8,52.1,30.25,South,180,0.0,-999.0,94,-99.99,,,0.00,Acu-Link.com,2013-06-21 11:37:00,
2013-06-21 07:53:00,55.8,54.1,30.24,NNW,337,0.0,-999.0,94,-99.99,,,0.00,Acu-Link.com,2013-06-21 11:53:00,
2013-06-21 08:08:00,58.3,56.0,30.24,NE,45,0.0,-999.0,92,-99.99,,,0.00,Acu-Link.com,2013-06-21 12:08:00,
2013-06-21 08:23:00,60.1,56.5,30.24,East,90,0.0,-999.0,88,-99.99,,,0.00,Acu-Link.com,2013-06-21 12:23:00,
2013-06-21 08:39:00,61.2,57.0,30.23,NW,315,0.0,-999.0,86,-99.99,,,0.00,Acu-Link.com,2013-06-21 12:39:00,
2013-06-21 08:54:00,62.4,57.8,30.23,ENE,67,0.0,-999.0,85,-99.99,,,0.00,Acu-Link.com,2013-06-21 12:54:00,
2013-06-21 09:09:00,64.2,58.9,30.24,WNW,292,0.0,-999.0,83,-99.99,,,0.00,Acu-Link.com,2013-06-21 13:09:00,
2013-06-21 09:25:00,65.7,59.4,30.24,NNE,22,0.0,-999.0,80,-99.99,,,0.00,Acu-Link.com,2013-06-21 13:25:00,
2013-06-21 09:40:00,67.5,59.3,30.24,NNE,22,0.0,-999.0,75,-99.99,,,0.00,Acu-Link.com,2013-06-21 13:40:00,
2013-06-21 09:55:00,68.5,57.9,30.24,NE,45,0.0,-999.0,69,-99.99,,,0.00,Acu-Link.com,2013-06-21 13:55:00,
2013-06-21 10:10:00,69.6,57.3,30.24,East,90,0.0,-999.0,65,-99.99,,,0.00,Acu-Link.com,2013-06-21 14:10:00,
2013-06-21 10:26:00,71.8,58.1,30.25,NE,45,0.0,-999.0,62,-99.99,,,0.00,Acu-Link.com,2013-06-21 14:26:00,
2013-06-21 10:41:00,71.6,55.5,30.24,NE,45,0.0,-999.0,57,-99.99,,,0.00,Acu-Link.com,2013-06-21 14:41:00,
2013-06-21 10:57:00,73.4,56.7,30.24,South,180,0.0,-999.0,56,-99.99,,,0.00,Acu-Link.com,2013-06-21 14:57:00,
2013-06-21 11:27:00,75.0,56.7,30.25,SSW,202,0.0,-999.0,53,-99.99,,,0.00,Acu-Link.com,2013-06-21 15:27:00,
2013-06-21 14:32:00,78.1,55.0,30.21,NW,315,0.0,-999.0,45,-99.99,,,0.00,Acu-Link.com,2013-06-21 18:32:00,
2013-06-21 15:02:00,80.6,56.6,30.22,SSW,202,0.0,-999.0,44,-99.99,,,0.00,Acu-Link.com,2013-06-21 19:02:00,
2013-06-21 15:33:00,85.5,55.5,30.23,NE,45,0.0,-999.0,36,-99.99,,,0.00,Acu-Link.com,2013-06-21 19:33:00,
2013-06-21 15:49:00,79.0,56.4,30.22,West,270,0.0,-999.0,46,-99.99,,,0.00,Acu-Link.com,2013-06-21 19:49:00,
2013-06-21 16:04:00,82.2,53.3,30.22,NW,315,0.0,-999.0,37,-99.99,,,0.00,Acu-Link.com,2013-06-21 20:04:00,
2013-06-21 16:19:00,81.7,54.3,30.21,SW,225,0.0,-999.0,39,-99.99,,,0.00,Acu-Link.com,2013-06-21 20:19:00,
2013-06-21 16:34:00,80.8,54.2,30.21,SW,225,0.0,-999.0,40,-99.99,,,0.00,Acu-Link.com,2013-06-21 20:34:00,
2013-06-21 16:50:00,79.2,54.8,30.21,SSW,202,0.0,-999.0,43,-99.99,,,0.00,Acu-Link.com,2013-06-21 20:50:00,
2013-06-21 17:05:00,78.6,55.5,30.21,West,270,0.0,-999.0,45,-99.99,,,0.00,Acu-Link.com,2013-06-21 21:05:00,
2013-06-21 17:21:00,77.5,56.2,30.21,SW,225,0.0,-999.0,48,-99.99,,,0.00,Acu-Link.com,2013-06-21 21:21:00,
2013-06-21 17:36:00,77.2,57.1,30.21,SSW,202,0.0,-999.0,50,-99.99,,,0.00,Acu-Link.com,2013-06-21 21:36:00,
2013-06-21 17:51:00,76.6,57.1,30.21,NNE,22,0.0,-999.0,51,-99.99,,,0.00,Acu-Link.com,2013-06-21 21:51:00,
2013-06-21 18:07:00,76.3,58.4,30.21,WSW,247,0.0,-999.0,54,-99.99,,,0.00,Acu-Link.com,2013-06-21 22:07:00,
2013-06-21 18:22:00,76.1,57.2,30.21,West,270,0.0,-999.0,52,-99.99,,,0.00,Acu-Link.com,2013-06-21 22:22:00,
2013-06-21 18:37:00,75.4,56.0,30.22,South,180,0.0,-999.0,51,-99.99,,,0.00,Acu-Link.com,2013-06-21 22:37:00,
2013-06-21 18:52:00,74.8,56.0,30.22,WSW,247,0.0,-999.0,52,-99.99,,,0.00,Acu-Link.com,2013-06-21 22:52:00,
2013-06-21 19:08:00,73.2,57.5,30.22,SSW,202,0.0,-999.0,58,-99.99,,,0.00,Acu-Link.com,2013-06-21 23:08:00,
2013-06-21 19:23:00,72.1,57.0,30.22,South,180,0.0,-999.0,59,-99.99,,,0.00,Acu-Link.com,2013-06-21 23:23:00,
2013-06-21 19:38:00,71.2,56.6,30.22,South,180,0.0,-999.0,60,-99.99,,,0.00,Acu-Link.com,2013-06-21 23:38:00,
2013-06-21 19:54:00,70.5,55.9,30.22,SSW,202,0.0,-999.0,60,-99.99,,,0.00,Acu-Link.com,2013-06-21 23:54:00,
2013-06-21 20:09:00,69.8,56.2,30.22,South,180,0.0,-999.0,62,-99.99,,,0.00,Acu-Link.com,2013-06-22 00:09:00,
2013-06-21 20:24:00,68.9,56.2,30.22,South,180,0.0,-999.0,64,-99.99,,,0.00,Acu-Link.com,2013-06-22 00:24:00,
2013-06-21 20:39:00,68.0,55.4,30.23,South,180,0.0,-999.0,64,-99.99,,,0.00,Acu-Link.com,2013-06-22 00:39:00,
2013-06-21 20:55:00,66.9,54.7,30.22,SSW,202,0.0,-999.0,65,-99.99,,,0.00,Acu-Link.com,2013-06-22 00:55:00,
2013-06-21 21:10:00,66.2,55.3,30.23,NE,45,0.0,-999.0,68,-99.99,,,0.00,Acu-Link.com,2013-06-22 01:10:00,
2013-06-21 21:25:00,64.6,55.0,30.23,SSW,202,0.0,-999.0,71,-99.99,,,0.00,Acu-Link.com,2013-06-22 01:25:00,
2013-06-21 21:40:00,63.9,55.4,30.23,South,180,0.0,-999.0,74,-99.99,,,0.00,Acu-Link.com,2013-06-22 01:40:00,
2013-06-21 21:56:00,63.0,55.3,30.23,SSE,157,0.0,-999.0,76,-99.99,,,0.00,Acu-Link.com,2013-06-22 01:56:00,
2013-06-21 22:11:00,62.1,55.5,30.23,ESE,112,0.0,-999.0,79,-99.99,,,0.00,Acu-Link.com,2013-06-22 02:11:00,
2013-06-21 22:26:00,61.3,55.4,30.23,West,270,0.0,-999.0,81,-99.99,,,0.00,Acu-Link.com,2013-06-22 02:26:00,
2013-06-21 22:42:00,60.8,55.3,30.23,SSE,157,0.0,-999.0,82,-99.99,,,0.00,Acu-Link.com,2013-06-22 02:42:00,
2013-06-21 22:57:00,60.1,55.2,30.23,ENE,67,0.0,-999.0,84,-99.99,,,0.00,Acu-Link.com,2013-06-22 02:57:00,
2013-06-21 23:12:00,59.7,55.2,30.22,SE,135,0.0,-999.0,85,-99.99,,,0.00,Acu-Link.com,2013-06-22 03:12:00,
2013-06-21 23:28:00,59.2,55.3,30.22,ENE,67,0.0,-999.0,87,-99.99,,,0.00,Acu-Link.com,2013-06-22 03:28:00,
2013-06-21 23:43:00,58.6,54.7,30.22,NNE,22,0.0,-999.0,87,-99.99,,,0.00,Acu-Link.com,2013-06-22 03:43:00,
2013-06-21 23:58:00,57.9,54.4,30.21,East,90,0.0,-999.0,88,-99.99,,,0.00,Acu-Link.com,2013-06-22 03:58:00,